createdAt,value
2023-02-22T00:01:08.235Z,3.67
2023-02-22T00:03:36.799Z,4.07
2023-02-22T00:06:07.345Z,3.77
2023-02-22T00:08:38.325Z,4.70
2023-02-22T00:11:10.647Z,4.23
2023-02-22T00:13:40.032Z,4.03
2023-02-22T00:16:08.779Z,3.90
2023-02-22T00:18:37.853Z,4.07
2023-02-22T00:21:10.626Z,4.20
2023-02-22T00:23:43.347Z,4.13
2023-02-22T00:26:13.246Z,4.93
2023-02-22T00:28:42.470Z,4.23
2023-02-22T00:31:10.586Z,4.20
2023-02-22T00:33:40.465Z,4.40
2023-02-22T00:36:10.981Z,4.10
2023-02-22T00:38:40.008Z,4.30
2023-02-22T00:41:08.608Z,3.93
2023-02-22T00:43:37.180Z,3.80
2023-02-22T00:46:05.777Z,4.37
2023-02-22T00:48:34.181Z,3.73
2023-02-22T00:51:02.285Z,3.93
2023-02-22T00:53:30.755Z,3.57
2023-02-22T00:55:59.236Z,3.50
2023-02-22T00:58:27.742Z,3.83
2023-02-22T01:00:56.301Z,4.57
2023-02-22T01:03:24.698Z,4.27
2023-02-22T01:05:53.225Z,5.27
2023-02-22T01:08:21.614Z,5.00
2023-02-22T01:10:52.599Z,5.67
2023-02-22T01:13:21.087Z,4.60
2023-02-22T01:15:49.974Z,4.57
2023-02-22T01:18:18.556Z,4.40
2023-02-22T01:20:48.059Z,4.53
2023-02-22T01:23:17.448Z,4.70
2023-02-22T01:25:45.939Z,4.70
2023-02-22T01:28:15.282Z,5.53
2023-02-22T01:30:43.829Z,4.90
2023-02-22T01:33:13.151Z,4.60
2023-02-22T01:35:41.902Z,5.10
2023-02-22T01:38:14.088Z,4.83
2023-02-22T01:40:45.442Z,4.83
2023-02-22T01:43:33.338Z,4.40
2023-02-22T01:46:08.469Z,4.67
2023-02-22T01:48:47.177Z,5.00
2023-02-22T01:51:25.383Z,5.87
2023-02-22T01:54:07.593Z,5.00
2023-02-22T01:56:41.418Z,4.73
2023-02-22T01:59:13.002Z,5.13
2023-02-22T02:01:44.739Z,5.10
2023-02-22T02:04:25.544Z,4.57
2023-02-22T02:06:55.952Z,5.20
2023-02-22T02:09:52.204Z,4.83
2023-02-22T02:12:23.508Z,4.70
2023-02-22T02:14:51.489Z,4.63
2023-02-22T02:17:24.268Z,4.60
2023-02-22T02:20:21.168Z,4.70
2023-02-22T02:23:10.068Z,5.37
2023-02-22T02:26:09.145Z,5.13
2023-02-22T02:29:01.730Z,4.83
2023-02-22T02:32:26.104Z,5.50
2023-02-22T02:35:14.342Z,5.50
2023-02-22T02:38:19.136Z,6.03
2023-02-22T02:41:06.776Z,6.50
2023-02-22T02:44:05.576Z,6.17
2023-02-22T02:46:59.356Z,5.40
2023-02-22T02:49:55.757Z,6.10
2023-02-22T02:52:28.642Z,5.50
2023-02-22T02:54:58.012Z,6.10
2023-02-22T02:57:26.547Z,5.60
2023-02-22T02:59:54.919Z,5.70
2023-02-22T03:03:17.515Z,6.07
2023-02-22T03:06:23.324Z,5.77
2023-02-22T03:09:21.595Z,6.00
2023-02-22T03:12:01.355Z,6.50
2023-02-22T03:14:55.812Z,7.27
2023-02-22T03:18:08.880Z,6.77
2023-02-22T03:21:00.217Z,8.53
2023-02-22T03:23:43.440Z,8.10
2023-02-22T03:26:24.043Z,7.20
2023-02-22T03:28:55.810Z,6.60
2023-02-22T03:31:37.249Z,6.57
2023-02-22T03:34:27.569Z,7.63
2023-02-22T03:37:01.121Z,8.47
2023-02-22T03:39:31.942Z,9.23
2023-02-22T03:42:07.985Z,9.10
2023-02-22T03:44:40.239Z,8.60
2023-02-22T03:47:14.634Z,8.40
2023-02-22T03:49:56.309Z,8.67
2023-02-22T03:52:24.964Z,8.00
2023-02-22T03:54:54.585Z,8.80
2023-02-22T03:57:29.816Z,8.97
2023-02-22T03:59:57.851Z,8.37
2023-02-22T04:02:26.333Z,8.40
2023-02-22T04:04:54.797Z,8.10
2023-02-22T04:07:23.210Z,8.50
2023-02-22T04:09:51.376Z,7.53
2023-02-22T04:12:19.824Z,7.30
2023-02-22T04:14:48.206Z,7.47
2023-02-22T04:17:16.229Z,8.23
2023-02-22T04:19:45.720Z,7.83
2023-02-22T04:22:13.773Z,7.83
2023-02-22T04:24:42.144Z,8.10
2023-02-22T04:27:10.544Z,8.03
2023-02-22T04:29:38.604Z,7.40
2023-02-22T04:32:07.053Z,7.10
2023-02-22T04:34:35.240Z,8.37
2023-02-22T04:37:03.683Z,9.43
2023-02-22T04:39:32.112Z,9.47
2023-02-22T04:42:00.165Z,8.53
2023-02-22T04:44:28.227Z,7.63
2023-02-22T04:46:56.682Z,9.37
2023-02-22T04:49:25.208Z,9.17
2023-02-22T04:51:53.767Z,9.33
2023-02-22T04:54:21.802Z,8.90
2023-02-22T04:56:49.923Z,8.07
2023-02-22T04:59:19.720Z,8.10
2023-02-22T05:01:47.953Z,7.10
2023-02-22T05:04:16.051Z,7.33
2023-02-22T05:06:44.043Z,8.77
2023-02-22T05:09:12.097Z,8.73
2023-02-22T05:11:40.493Z,8.20
2023-02-22T05:14:08.922Z,8.53
2023-02-22T05:16:37.159Z,9.00
2023-02-22T05:19:05.745Z,10.63
2023-02-22T05:21:33.795Z,10.73
2023-02-22T05:24:01.839Z,10.97
2023-02-22T05:26:30.224Z,10.10
2023-02-22T05:28:58.288Z,11.83
2023-02-22T05:31:26.802Z,11.47
2023-02-22T05:33:54.847Z,11.73
2023-02-22T05:36:23.308Z,11.10
2023-02-22T05:38:51.717Z,10.80
2023-02-22T05:41:20.163Z,10.13
2023-02-22T05:43:48.858Z,10.47
2023-02-22T05:46:17.300Z,11.50
2023-02-22T05:48:45.332Z,10.50
2023-02-22T05:51:13.566Z,11.33
2023-02-22T05:53:42.550Z,11.00
2023-02-22T05:56:10.933Z,11.37
2023-02-22T05:58:38.995Z,10.70
2023-02-22T06:01:07.625Z,10.63
2023-02-22T06:03:35.622Z,11.27
2023-02-22T06:06:05.660Z,11.60
2023-02-22T06:08:33.620Z,12.00
2023-02-22T06:11:02.147Z,11.40
2023-02-22T06:13:30.096Z,11.63
2023-02-22T06:16:00.744Z,11.13
2023-02-22T06:18:30.999Z,11.00
2023-02-22T06:21:00.247Z,10.53
2023-02-22T06:23:28.697Z,11.47
2023-02-22T06:25:56.804Z,10.87
2023-02-22T06:28:26.364Z,10.23
2023-02-22T06:30:54.367Z,10.70
2023-02-22T06:33:22.769Z,11.53
2023-02-22T06:35:50.907Z,12.03
2023-02-22T06:38:27.675Z,11.30
2023-02-22T06:40:56.439Z,11.10
2023-02-22T06:43:25.999Z,11.83
2023-02-22T06:45:54.602Z,10.43
2023-02-22T06:48:22.777Z,11.67
2023-02-22T06:50:50.913Z,11.47
2023-02-22T06:53:18.964Z,13.07
2023-02-22T06:55:46.914Z,11.97
2023-02-22T06:58:15.981Z,12.53
2023-02-22T07:00:44.072Z,11.97
2023-02-22T07:03:14.309Z,11.73
2023-02-22T07:05:42.829Z,11.70
2023-02-22T07:08:11.587Z,11.10
2023-02-22T07:10:41.154Z,11.30
2023-02-22T07:13:10.016Z,11.27
2023-02-22T07:15:38.510Z,10.77
2023-02-22T07:18:07.466Z,12.27
2023-02-22T07:20:36.283Z,11.13
2023-02-22T07:23:04.438Z,11.73
2023-02-22T07:25:32.941Z,11.23
2023-02-22T07:28:01.487Z,11.37
2023-02-22T07:30:34.064Z,10.47
2023-02-22T07:33:05.857Z,11.27
2023-02-22T07:35:49.513Z,11.87
2023-02-22T07:38:20.230Z,13.10
2023-02-22T07:40:48.591Z,12.53
2023-02-22T07:43:23.601Z,12.07
2023-02-22T07:45:54.845Z,13.20
2023-02-22T07:48:26.886Z,12.40
2023-02-22T07:50:55.373Z,10.70
2023-02-22T07:53:30.785Z,11.77
2023-02-22T07:56:00.489Z,11.67
2023-02-22T07:58:31.855Z,11.97
2023-02-22T08:01:02.137Z,12.17
2023-02-22T08:03:36.408Z,11.57
2023-02-22T08:06:07.101Z,11.50
2023-02-22T08:08:35.732Z,11.53
2023-02-22T08:11:04.388Z,10.57
2023-02-22T08:13:32.860Z,10.83
2023-02-22T08:16:01.410Z,10.27
2023-02-22T08:18:29.816Z,11.13
2023-02-22T08:20:58.189Z,10.70
2023-02-22T08:23:27.451Z,10.50
2023-02-22T08:25:56.581Z,11.97
2023-02-22T08:28:26.444Z,12.13
2023-02-22T08:30:55.107Z,13.17
2023-02-22T08:33:23.703Z,13.27
2023-02-22T08:35:52.276Z,12.80
2023-02-22T08:38:26.101Z,12.87
2023-02-22T08:40:54.869Z,10.50
2023-02-22T08:43:23.804Z,11.97
2023-02-22T08:45:52.974Z,12.80
2023-02-22T08:48:22.030Z,12.63
2023-02-22T08:50:50.528Z,11.83
2023-02-22T08:53:19.043Z,11.50
2023-02-22T08:55:47.783Z,13.13
2023-02-22T08:58:16.266Z,12.10
2023-02-22T09:00:45.694Z,12.00
2023-02-22T09:03:16.410Z,12.97
2023-02-22T09:05:45.701Z,12.03
2023-02-22T09:08:14.450Z,14.00
2023-02-22T09:10:42.746Z,12.13
2023-02-22T09:13:11.132Z,12.57
2023-02-22T09:15:40.794Z,12.03
2023-02-22T09:18:11.581Z,13.43
2023-02-22T09:20:40.221Z,12.57
2023-02-22T09:23:11.219Z,12.57
2023-02-22T09:25:40.935Z,12.70
2023-02-22T09:28:09.303Z,12.20
2023-02-22T09:30:38.262Z,11.57
2023-02-22T09:33:18.489Z,12.20
2023-02-22T09:35:49.837Z,12.07
2023-02-22T09:38:24.773Z,11.97
2023-02-22T09:41:09.044Z,11.63
2023-02-22T09:44:08.794Z,11.57
2023-02-22T09:46:42.107Z,12.20
2023-02-22T09:49:38.180Z,11.30
2023-02-22T09:52:18.762Z,11.60
2023-02-22T09:54:57.772Z,12.27
2023-02-22T09:57:40.678Z,11.40
2023-02-22T10:00:17.531Z,10.77
2023-02-22T10:03:00.250Z,11.10
2023-02-22T10:05:31.075Z,11.53
2023-02-22T10:08:06.920Z,10.73
2023-02-22T10:10:39.973Z,10.90
2023-02-22T10:13:28.988Z,10.50
2023-02-22T10:16:44.546Z,11.13
2023-02-22T10:19:43.603Z,10.10
2023-02-22T10:22:40.197Z,10.97
2023-02-22T10:25:20.086Z,11.80
2023-02-22T10:28:21.901Z,12.00
2023-02-22T10:30:59.559Z,11.47
2023-02-22T10:33:42.550Z,11.13
2023-02-22T10:36:22.308Z,9.73
2023-02-22T10:39:09.188Z,11.63
2023-02-22T10:41:46.103Z,10.90
2023-02-22T10:44:14.442Z,11.13
2023-02-22T10:46:44.503Z,11.17
2023-02-22T10:49:19.003Z,10.87
2023-02-22T10:51:49.512Z,10.93
2023-02-22T10:54:26.683Z,10.27
2023-02-22T10:56:56.678Z,11.63
2023-02-22T10:59:38.281Z,10.57
2023-02-22T11:02:24.521Z,9.27
2023-02-22T11:04:59.555Z,9.33
2023-02-22T11:07:33.263Z,11.20
2023-02-22T11:10:10.240Z,10.93
2023-02-22T11:12:44.662Z,10.27
2023-02-22T11:15:32.927Z,11.00
2023-02-22T11:18:01.991Z,10.50
2023-02-22T11:20:38.420Z,10.27
2023-02-22T11:23:08.257Z,10.50
2023-02-22T11:25:43.124Z,10.03
2023-02-22T11:28:31.401Z,10.27
2023-02-22T11:31:23.564Z,10.00
2023-02-22T11:33:58.101Z,9.73
2023-02-22T11:36:46.609Z,9.90
2023-02-22T11:39:28.107Z,9.90
2023-02-22T11:41:59.705Z,10.93
2023-02-22T11:44:31.875Z,9.90
2023-02-22T11:47:07.037Z,9.37
2023-02-22T11:49:49.209Z,10.47
2023-02-22T11:52:39.485Z,10.17
2023-02-22T11:56:00.271Z,10.07
2023-02-22T11:59:08.865Z,10.50
2023-02-22T12:01:54.964Z,9.60
2023-02-22T12:04:57.520Z,9.20
2023-02-22T12:07:31.741Z,8.97
2023-02-22T12:10:14.760Z,8.33
2023-02-22T12:12:43.185Z,7.90
2023-02-22T12:15:31.099Z,8.50
2023-02-22T12:18:46.023Z,9.40
2023-02-22T12:21:19.311Z,8.83
2023-02-22T12:24:02.782Z,8.50
2023-02-22T12:26:42.449Z,8.53
2023-02-22T12:29:58.098Z,8.47
2023-02-22T12:32:42.956Z,7.90
2023-02-22T12:35:29.582Z,8.20
2023-02-22T12:38:15.348Z,7.83
2023-02-22T12:40:53.892Z,7.87
2023-02-22T12:43:39.016Z,8.10
2023-02-22T12:46:18.955Z,7.23
2023-02-22T12:49:13.934Z,7.70
2023-02-22T12:52:21.332Z,7.80
2023-02-22T12:55:07.120Z,7.30
2023-02-22T12:57:53.021Z,7.63
2023-02-22T13:00:56.841Z,7.23
2023-02-22T13:03:40.947Z,7.80
2023-02-22T13:06:27.700Z,7.53
2023-02-22T13:09:44.154Z,7.73
2023-02-22T13:12:14.692Z,7.63
2023-02-22T13:15:10.883Z,7.27
2023-02-22T13:18:12.813Z,7.53
2023-02-22T13:20:52.086Z,7.43
2023-02-22T13:24:04.846Z,7.80
2023-02-22T13:27:03.034Z,7.20
2023-02-22T13:29:43.941Z,7.37
2023-02-22T13:32:39.983Z,7.63
2023-02-22T13:35:10.785Z,8.20
2023-02-22T13:38:03.405Z,8.57
2023-02-22T13:40:57.877Z,7.77
2023-02-22T13:43:32.305Z,7.60
2023-02-22T13:46:37.202Z,7.03
2023-02-22T13:49:39.831Z,8.07
2023-02-22T13:52:17.199Z,7.00
2023-02-22T13:54:46.771Z,7.63
2023-02-22T13:57:48.193Z,7.67
2023-02-22T14:00:16.620Z,7.27
2023-02-22T14:03:14.391Z,7.30
2023-02-22T14:05:42.525Z,6.90
2023-02-22T14:08:19.747Z,6.77
2023-02-22T14:10:51.828Z,7.17
2023-02-22T14:13:29.172Z,7.33
2023-02-22T14:16:00.824Z,6.43
2023-02-22T14:18:32.701Z,7.63
2023-02-22T14:21:20.775Z,7.10
2023-02-22T14:24:13.157Z,6.73
2023-02-22T14:26:42.347Z,7.30
2023-02-22T14:29:10.367Z,6.80
2023-02-22T14:31:44.574Z,6.30
2023-02-22T14:34:21.453Z,6.50
2023-02-22T14:37:13.519Z,6.47
2023-02-22T14:39:43.737Z,6.17
2023-02-22T14:42:38.481Z,6.27
2023-02-22T14:45:09.707Z,6.33
2023-02-22T14:47:54.427Z,6.50
2023-02-22T14:50:28.879Z,6.47
2023-02-22T14:53:23.768Z,5.80
2023-02-22T14:56:04.350Z,6.10
2023-02-22T14:58:37.663Z,6.17
2023-02-22T15:02:05.692Z,5.63
2023-02-22T15:04:27.726Z,5.50
2023-02-22T15:06:58.488Z,6.07
2023-02-22T15:09:37.630Z,6.37
2023-02-22T15:12:05.814Z,6.00
2023-02-22T15:14:40.753Z,5.70
2023-02-22T15:17:22.939Z,5.27
2023-02-22T15:19:52.251Z,5.23
2023-02-22T15:22:37.245Z,4.93
2023-02-22T15:25:08.600Z,5.53
2023-02-22T15:27:38.079Z,5.37
2023-02-22T15:30:26.490Z,5.23
2023-02-22T15:33:04.477Z,5.10
2023-02-22T15:35:34.094Z,5.33
2023-02-22T15:38:14.622Z,5.00
2023-02-22T15:40:43.227Z,4.87
2023-02-22T15:43:24.284Z,5.00
2023-02-22T15:45:53.460Z,5.43
2023-02-22T15:48:21.611Z,5.10
2023-02-22T15:51:15.303Z,5.33
2023-02-22T15:53:48.611Z,4.43
2023-02-22T15:56:29.959Z,4.67
2023-02-22T15:59:13.199Z,4.93
2023-02-22T16:01:48.371Z,4.77
2023-02-22T16:04:26.867Z,4.17
2023-02-22T16:07:16.913Z,4.80
2023-02-22T16:09:51.374Z,4.50
2023-02-22T16:12:22.407Z,4.33
2023-02-22T16:14:52.546Z,4.13
2023-02-22T16:17:30.856Z,4.70
2023-02-22T16:20:08.425Z,4.40
2023-02-22T16:22:39.499Z,4.57
2023-02-22T16:25:20.208Z,4.17
2023-02-22T16:28:01.620Z,4.53
2023-02-22T16:30:39.593Z,4.57
2023-02-22T16:33:13.767Z,4.67
2023-02-22T16:35:51.748Z,4.60
2023-02-22T16:38:21.293Z,4.43
2023-02-22T16:40:56.625Z,5.10
2023-02-22T16:43:32.710Z,4.93
2023-02-22T16:46:02.986Z,5.03
2023-02-22T16:48:33.686Z,5.53
2023-02-22T16:51:08.932Z,5.57
2023-02-22T16:53:38.858Z,5.27
2023-02-22T16:56:11.754Z,5.00
2023-02-22T16:58:41.862Z,5.60
2023-02-22T17:01:12.698Z,5.67
2023-02-22T17:03:41.280Z,6.13
2023-02-22T17:06:11.109Z,6.07
2023-02-22T17:08:41.837Z,5.57
2023-02-22T17:11:14.040Z,5.60
2023-02-22T17:13:42.061Z,6.53
2023-02-22T17:16:15.972Z,6.73
2023-02-22T17:18:45.905Z,6.40
2023-02-22T17:21:16.597Z,6.73
2023-02-22T17:23:46.260Z,7.20
2023-02-22T17:26:17.246Z,6.87
2023-02-22T17:28:46.133Z,7.80
2023-02-22T17:31:24.094Z,7.63
2023-02-22T17:33:52.515Z,7.77
2023-02-22T17:36:21.105Z,8.37
2023-02-22T17:38:50.007Z,8.70
2023-02-22T17:41:26.375Z,8.97
2023-02-22T17:43:58.687Z,8.27
2023-02-22T17:46:47.825Z,8.50
2023-02-22T17:49:42.182Z,8.23
2023-02-22T17:52:17.803Z,9.10
2023-02-22T17:57:59.384Z,8.27
2023-02-22T18:00:38.956Z,8.93
2023-02-22T18:03:21.207Z,9.40
2023-02-22T18:06:10.072Z,9.60
2023-02-22T18:08:39.240Z,9.67
2023-02-22T18:11:07.826Z,10.20
2023-02-22T18:13:36.460Z,10.07
2023-02-22T18:16:05.821Z,10.13
2023-02-22T18:18:34.823Z,10.43
2023-02-22T18:21:04.152Z,10.03
2023-02-22T18:23:34.235Z,9.67
2023-02-22T18:26:11.099Z,10.80
2023-02-22T18:28:40.588Z,10.70
2023-02-22T18:31:14.458Z,10.67
2023-02-22T18:33:49.450Z,11.43
2023-02-22T18:36:23.010Z,10.87
2023-02-22T18:38:54.185Z,11.50
2023-02-22T18:41:26.557Z,11.37
2023-02-22T18:43:58.977Z,10.80
2023-02-22T18:46:27.998Z,11.73
2023-02-22T18:48:57.816Z,11.73
2023-02-22T18:51:27.109Z,11.67
2023-02-22T18:54:00.427Z,12.87
2023-02-22T18:56:30.883Z,11.90
2023-02-22T18:59:02.441Z,12.57
2023-02-22T19:01:31.609Z,11.33
2023-02-22T19:04:01.871Z,12.03
2023-02-22T19:06:30.376Z,12.03
2023-02-22T19:09:01.390Z,12.77
2023-02-22T19:11:30.090Z,12.73
2023-02-22T19:13:59.604Z,12.10
2023-02-22T19:16:29.020Z,12.60
2023-02-22T19:18:59.115Z,13.20
2023-02-22T19:21:29.858Z,12.67
2023-02-22T19:24:00.054Z,13.77
2023-02-22T19:26:38.449Z,12.03
2023-02-22T19:29:08.439Z,12.60
2023-02-22T19:31:36.992Z,12.37
2023-02-22T19:34:11.974Z,12.47
2023-02-22T19:36:46.895Z,12.67
2023-02-22T19:39:18.885Z,13.97
2023-02-22T19:41:48.038Z,12.83
2023-02-22T19:44:16.487Z,13.87
2023-02-22T19:46:46.737Z,13.50
2023-02-22T19:49:16.179Z,13.10
2023-02-22T19:51:44.226Z,12.77
2023-02-22T19:54:17.416Z,13.73
2023-02-22T19:56:50.813Z,13.57
2023-02-22T19:59:22.896Z,13.57
2023-02-22T20:01:54.973Z,13.77
2023-02-22T20:04:23.617Z,12.50
2023-02-22T20:06:55.141Z,14.13
2023-02-22T20:09:29.839Z,14.33
2023-02-22T20:11:59.296Z,12.23
2023-02-22T20:14:30.586Z,12.20
2023-02-22T20:17:00.564Z,14.87
2023-02-22T20:19:29.859Z,13.47
2023-02-22T20:22:00.316Z,13.57
2023-02-22T20:24:28.814Z,13.20
2023-02-22T20:26:58.324Z,13.47
2023-02-22T20:29:30.481Z,14.17
2023-02-22T20:32:05.582Z,13.40
2023-02-22T20:34:36.365Z,13.83
2023-02-22T20:37:05.489Z,13.13
2023-02-22T20:39:34.139Z,14.13
2023-02-22T20:42:04.691Z,13.87
2023-02-22T20:44:33.170Z,13.93
2023-02-22T20:47:03.449Z,14.63
2023-02-22T20:49:31.841Z,13.47
2023-02-22T20:52:00.519Z,14.70
2023-02-22T20:54:28.957Z,15.00
2023-02-22T20:56:57.489Z,14.97
2023-02-22T20:59:29.050Z,14.77
2023-02-22T21:01:57.293Z,15.07
2023-02-22T21:04:25.638Z,14.20
2023-02-22T21:06:54.058Z,14.83
2023-02-22T21:09:22.765Z,15.47
2023-02-22T21:11:51.336Z,15.80
2023-02-22T21:14:20.262Z,14.27
2023-02-22T21:16:51.870Z,16.57
2023-02-22T21:19:25.492Z,15.43
2023-02-22T21:21:56.504Z,15.40
2023-02-22T21:24:27.477Z,15.87
2023-02-22T21:26:58.585Z,15.87
2023-02-22T21:29:27.090Z,13.97
2023-02-22T21:31:55.835Z,15.33
2023-02-22T21:34:25.726Z,15.30
2023-02-22T21:36:54.565Z,15.80
2023-02-22T21:39:28.349Z,16.03
2023-02-22T21:42:00.640Z,15.57
2023-02-22T21:44:29.242Z,15.90
2023-02-22T21:46:57.746Z,17.17
2023-02-22T21:49:26.003Z,17.00
2023-02-22T21:51:54.183Z,16.93
2023-02-22T21:54:23.010Z,16.00
2023-02-22T21:56:51.624Z,15.87
2023-02-22T21:59:23.704Z,17.27
2023-02-22T22:01:56.629Z,15.07
2023-02-22T22:04:31.292Z,16.03
2023-02-22T22:07:01.779Z,15.27
2023-02-22T22:09:37.145Z,15.80
2023-02-22T22:12:06.076Z,15.33
2023-02-22T22:14:36.193Z,15.83
2023-02-22T22:17:07.974Z,16.50
2023-02-22T22:19:40.431Z,15.67
2023-02-22T22:22:09.460Z,16.67
2023-02-22T22:24:41.351Z,15.97
2023-02-22T22:27:12.276Z,15.60
2023-02-22T22:29:40.497Z,15.73
2023-02-22T22:32:10.590Z,15.67
2023-02-22T22:34:39.165Z,16.43
2023-02-22T22:37:07.671Z,16.10
2023-02-22T22:39:35.689Z,17.13
2023-02-22T22:42:03.814Z,16.77
2023-02-22T22:44:42.043Z,16.47
2023-02-22T22:47:12.460Z,16.70
2023-02-22T22:49:42.492Z,17.33
2023-02-22T22:52:14.150Z,16.47
2023-02-22T22:54:44.424Z,17.33
2023-02-22T22:57:13.456Z,16.70
2023-02-22T22:59:42.132Z,16.20
2023-02-22T23:02:11.610Z,17.10
2023-02-22T23:04:39.840Z,17.60
2023-02-22T23:07:08.498Z,15.93
2023-02-22T23:09:38.749Z,16.40
2023-02-22T23:12:09.619Z,15.60
2023-02-22T23:14:44.094Z,15.83
2023-02-22T23:17:26.815Z,14.63
2023-02-22T23:19:56.120Z,16.73
2023-02-22T23:22:24.545Z,16.07
2023-02-22T23:24:54.507Z,16.23
2023-02-22T23:27:23.717Z,15.80
2023-02-22T23:29:52.499Z,15.63
2023-02-22T23:32:21.125Z,15.40
2023-02-22T23:34:49.893Z,15.70
2023-02-22T23:37:20.877Z,15.80
2023-02-22T23:39:50.883Z,17.37
2023-02-22T23:42:19.146Z,15.87
2023-02-22T23:44:47.175Z,16.13
2023-02-22T23:47:16.039Z,15.40
2023-02-22T23:49:49.277Z,15.43
2023-02-22T23:52:24.240Z,14.80
2023-02-22T23:54:53.883Z,14.87
2023-02-22T23:57:22.050Z,16.30
2023-02-22T23:59:51.349Z,15.53
